Time;durP1;ratioP1;P1;durP2;ratioP2;P2;SDS_P1;SDS_P2;PMS_P1;PMS_P2;Temp;Humidity;BMP_temperature;BMP_pressure;BME280_temperature;BME280_humidity;BME280_pressure;Samples;Min_cycle;Max_cycle;Signal;HPM_P1;HPM_P2
2022/06/12 00:00:52;;;;;;;8.30;1.20;;;19.60;70.50;;;;;;5051614;28;20446;-64
2022/06/12 00:03:19;;;;;;;11.93;2.13;;;19.70;70.60;;;;;;5053157;28;20025;-63
2022/06/12 00:05:50;;;;;;;4.93;1.70;;;19.80;69.90;;;;;;5053126;28;20028;-63
2022/06/12 00:08:17;;;;;;;5.75;1.38;;;19.90;69.80;;;;;;5053199;28;20048;-63
2022/06/12 00:10:45;;;;;;;5.53;1.48;;;19.70;70.30;;;;;;5052621;28;20059;-64
2022/06/12 00:13:13;;;;;;;7.03;1.33;;;19.60;70.80;;;;;;5052399;28;20052;-63
2022/06/12 00:15:39;;;;;;;7.97;1.45;;;19.50;70.70;;;;;;5053037;28;20037;-66
2022/06/12 00:18:05;;;;;;;5.82;1.67;;;19.50;71.00;;;;;;5053000;28;20017;-63
2022/06/12 00:20:32;;;;;;;5.65;1.63;;;19.40;71.10;;;;;;5053419;28;20033;-63
2022/06/12 00:22:58;;;;;;;6.32;1.25;;;19.40;71.50;;;;;;5053123;28;20035;-63
2022/06/12 00:25:28;;;;;;;5.68;1.52;;;19.40;71.80;;;;;;5053312;28;20055;-63
2022/06/12 00:27:54;;;;;;;4.72;1.10;;;19.30;71.80;;;;;;5053236;28;20381;-63
2022/06/12 00:30:23;;;;;;;6.70;1.33;;;19.30;72.10;;;;;;5053359;28;20510;-69
2022/06/12 00:32:52;;;;;;;4.50;1.27;;;19.30;72.20;;;;;;5052416;28;20120;-70
2022/06/12 00:35:20;;;;;;;6.32;1.58;;;19.30;72.50;;;;;;5035192;28;20370;-69
2022/06/12 00:37:46;;;;;;;6.68;1.83;;;19.30;72.60;;;;;;5052643;28;20049;-70
2022/06/12 00:40:12;;;;;;;6.90;1.48;;;19.20;72.70;;;;;;5035395;28;20025;-64
2022/06/12 00:42:42;;;;;;;8.25;1.70;;;19.20;72.90;;;;;;5053100;28;20021;-71
2022/06/12 00:45:33;;;;;;;6.00;1.50;;;19.10;72.90;;;;;;5053083;28;20060;-71
2022/06/12 00:48:01;;;;;;;5.28;1.48;;;19.10;73.20;;;;;;5054056;28;20029;-71
2022/06/12 00:50:28;;;;;;;7.15;1.25;;;19.10;73.30;;;;;;5057282;28;20021;-73
2022/06/12 00:52:55;;;;;;;8.38;1.70;;;19.10;73.60;;;;;;5057120;28;20424;-66
2022/06/12 00:55:27;;;;;;;7.90;1.67;;;19.00;73.60;;;;;;5056092;28;20652;-65
2022/06/12 00:58:01;;;;;;;6.20;1.45;;;18.90;73.80;;;;;;5056558;28;20029;-64
2022/06/12 01:00:26;;;;;;;8.13;1.90;;;19.00;74.00;;;;;;5056786;28;20055;-63
2022/06/12 01:02:53;;;;;;;8.07;1.52;;;19.00;73.80;;;;;;5056991;28;20048;-63
2022/06/12 01:08:06;;;;;;;6.22;1.90;;;18.90;74.30;;;;;;5056552;28;20044;-63
2022/06/12 01:10:37;;;;;;;4.85;1.40;;;18.90;74.70;;;;;;5056556;28;20075;-63
2022/06/12 01:13:09;;;;;;;5.07;1.30;;;18.90;74.70;;;;;;5056658;28;20037;-63
2022/06/12 01:15:39;;;;;;;7.13;1.95;;;18.90;74.80;;;;;;5056475;28;20091;-63
2022/06/12 01:18:10;;;;;;;7.18;1.55;;;18.90;74.80;;;;;;5056239;28;20108;-64
2022/06/12 01:20:47;;;;;;;5.05;1.80;;;18.80;74.90;;;;;;5056901;28;20469;-65
2022/06/12 01:23:49;;;;;;;8.15;2.15;;;18.80;75.50;;;;;;5056564;28;20029;-70
2022/06/12 01:26:39;;;;;;;6.68;1.80;;;18.80;75.50;;;;;;5056504;28;20166;-67
2022/06/12 01:29:20;;;;;;;8.23;1.88;;;18.70;75.20;;;;;;5056086;28;20083;-70
2022/06/12 01:32:02;;;;;;;8.27;1.90;;;18.70;75.30;;;;;;5056489;28;20037;-71
2022/06/12 01:34:36;;;;;;;;;;;18.60;75.50;;;;;;5056603;28;20035;-71
2022/06/12 01:37:08;;;;;;;7.00;1.50;;;18.70;76.80;;;;;;5056181;28;19911;-72
2022/06/12 01:39:51;;;;;;;7.25;1.45;;;18.70;75.70;;;;;;5056143;28;20031;-72
2022/06/12 01:42:45;;;;;;;7.05;1.70;;;18.60;75.60;;;;;;5056137;28;20032;-71
2022/06/12 01:45:31;;;;;;;5.95;1.40;;;18.60;76.00;;;;;;5055701;28;20029;-72
2022/06/12 01:48:08;;;;;;;8.88;2.22;;;18.50;76.00;;;;;;5055679;28;20087;-71
2022/06/12 01:50:47;;;;;;;6.05;1.60;;;18.50;75.80;;;;;;5055976;28;20048;-68
2022/06/12 01:53:29;;;;;;;6.75;1.48;;;18.40;75.80;;;;;;5055781;28;20037;-71
2022/06/12 01:56:17;;;;;;;7.13;1.77;;;18.40;75.90;;;;;;5055904;28;20082;-72
2022/06/12 01:58:48;;;;;;;7.53;1.52;;;18.40;76.10;;;;;;5055096;28;20057;-70
2022/06/12 02:01:24;;;;;;;6.78;1.58;;;18.30;76.30;;;;;;5055270;28;20048;-71
2022/06/12 02:04:15;;;;;;;5.95;1.73;;;18.30;76.80;;;;;;5055569;28;20489;-68
2022/06/12 02:07:09;;;;;;;6.82;1.52;;;18.30;76.40;;;;;;5050578;28;20029;-69
2022/06/12 02:10:04;;;;;;;3.47;1.15;;;18.30;76.40;;;;;;5055037;28;20021;-69
2022/06/12 02:15:27;;;;;;;6.80;1.77;;;18.30;76.90;;;;;;5055679;28;20040;-71
2022/06/12 02:17:59;;;;;;;6.00;1.48;;;18.30;76.90;;;;;;5055101;28;20061;-71
2022/06/12 02:20:31;;;;;;;5.68;1.30;;;18.20;76.80;;;;;;5055333;28;20029;-71
2022/06/12 02:22:58;;;;;;;7.35;2.08;;;18.20;76.90;;;;;;5055496;28;20025;-70
2022/06/12 02:25:30;;;;;;;6.88;1.40;;;18.20;77.30;;;;;;5055288;28;20484;-71
2022/06/12 02:28:03;;;;;;;6.88;1.63;;;18.10;77.30;;;;;;5055062;28;20025;-71
2022/06/12 02:30:37;;;;;;;6.68;1.73;;;18.10;77.30;;;;;;5055259;28;20493;-71
2022/06/12 02:33:12;;;;;;;7.68;1.95;;;18.10;77.80;;;;;;5055081;28;20040;-71
2022/06/12 02:35:45;;;;;;;5.20;1.25;;;18.10;77.60;;;;;;5055173;28;20017;-71
2022/06/12 02:38:24;;;;;;;7.30;1.67;;;18.00;77.90;;;;;;5055139;28;20122;-72
2022/06/12 02:40:55;;;;;;;7.60;1.80;;;17.90;78.10;;;;;;5055112;28;20052;-71
2022/06/12 02:43:25;;;;;;;6.68;1.42;;;17.90;78.50;;;;;;5054810;28;20036;-71
2022/06/12 02:45:59;;;;;;;11.40;1.85;;;17.90;78.60;;;;;;5054759;28;20028;-71
2022/06/12 02:48:25;;;;;;;10.00;2.38;;;17.80;78.70;;;;;;5055226;28;20059;-71
2022/06/12 02:51:22;;;;;;;8.73;1.63;;;17.80;78.90;;;;;;5054845;28;20025;-68
2022/06/12 02:54:27;;;;;;;5.55;1.70;;;17.80;79.20;;;;;;5054944;28;20039;-71
2022/06/12 02:56:59;;;;;;;6.38;1.80;;;17.80;79.30;;;;;;5040185;28;20111;-71
2022/06/12 02:59:39;;;;;;;7.60;2.38;;;17.80;79.30;;;;;;5054816;28;20439;-71
2022/06/12 03:02:15;;;;;;;6.60;2.00;;;17.80;79.40;;;;;;5054620;28;20044;-71
2022/06/12 03:04:53;;;;;;;7.95;1.85;;;17.70;79.60;;;;;;5054436;28;20033;-71
2022/06/12 03:07:20;;;;;;;6.55;2.35;;;17.70;79.80;;;;;;5054673;28;20032;-71
2022/06/12 03:09:45;;;;;;;9.70;2.08;;;17.60;80.10;;;;;;5054503;28;20056;-69
2022/06/12 03:12:12;;;;;;;6.03;1.50;;;17.60;80.20;;;;;;5053563;28;20072;-71
2022/06/12 03:14:37;;;;;;;8.50;2.45;;;17.60;80.30;;;;;;5054397;28;20028;-70
2022/06/12 03:17:03;;;;;;;8.18;2.22;;;17.60;80.50;;;;;;5054228;28;20037;-71
2022/06/12 03:19:42;;;;;;;9.80;2.13;;;17.70;80.60;;;;;;5054402;28;20017;-71
2022/06/12 03:22:13;;;;;;;6.18;1.95;;;17.60;80.70;;;;;;5054503;28;20021;-71
2022/06/12 03:24:52;;;;;;;5.97;2.07;;;17.60;81.00;;;;;;5054427;28;20021;-70
2022/06/12 03:27:18;;;;;;;9.15;2.20;;;17.50;81.00;;;;;;5053944;28;20025;-71
2022/06/12 03:30:16;;;;;;;9.57;1.95;;;17.50;81.30;;;;;;5054038;28;20154;-71
2022/06/12 03:32:56;;;;;;;8.43;1.75;;;17.50;81.70;;;;;;5053947;28;20041;-71
2022/06/12 03:35:25;;;;;;;7.35;1.98;;;17.50;81.70;;;;;;5053943;28;20029;-70
2022/06/12 03:38:34;;;;;;;7.78;2.47;;;17.50;81.80;;;;;;5054095;28;20040;-71
2022/06/12 03:41:15;;;;;;;10.07;2.13;;;17.50;81.90;;;;;;5035542;28;20457;-70
2022/06/12 03:43:54;;;;;;;7.53;1.83;;;17.40;82.10;;;;;;5054145;28;20036;-70
2022/06/12 03:46:29;;;;;;;8.80;2.10;;;17.40;82.20;;;;;;5053753;28;20029;-71
2022/06/12 03:49:05;;;;;;;6.03;1.67;;;17.40;82.50;;;;;;5053706;28;20064;-71
2022/06/12 03:51:41;;;;;;;5.95;1.73;;;17.40;82.60;;;;;;5053772;28;20033;-71
2022/06/12 03:54:37;;;;;;;13.13;2.22;;;17.30;82.70;;;;;;5053477;28;20508;-70
2022/06/12 04:00:17;;;;;;;7.30;1.88;;;17.40;83.10;;;;;;5053618;28;20082;-68
2022/06/12 04:02:46;;;;;;;8.07;1.98;;;17.30;83.20;;;;;;5053437;28;20015;-72
2022/06/12 04:05:23;;;;;;;8.27;2.00;;;17.20;83.60;;;;;;5053347;28;20033;-70
2022/06/12 04:07:52;;;;;;;8.90;2.30;;;17.30;83.80;;;;;;5053263;28;20029;-70
2022/06/12 04:10:22;;;;;;;10.43;2.15;;;17.30;83.90;;;;;;5053204;28;20040;-70
2022/06/12 04:12:49;;;;;;;8.60;2.15;;;17.30;83.90;;;;;;5053359;28;20036;-70
2022/06/12 04:15:29;;;;;;;9.57;2.65;;;17.30;83.90;;;;;;5053202;28;20028;-74
2022/06/12 04:17:56;;;;;;;9.45;2.30;;;17.30;84.10;;;;;;5053176;28;20056;-70
2022/06/12 04:20:27;;;;;;;7.95;2.47;;;17.30;84.40;;;;;;5053176;28;20021;-70
2022/06/12 04:23:09;;;;;;;8.70;2.25;;;17.20;84.30;;;;;;5052629;28;20037;-70
2022/06/12 04:25:42;;;;;;;12.07;2.53;;;17.20;84.60;;;;;;5053216;28;20013;-71
2022/06/12 04:28:25;;;;;;;9.15;2.10;;;17.20;84.70;;;;;;5052936;28;20044;-70
2022/06/12 04:30:53;;;;;;;12.85;2.45;;;17.20;84.90;;;;;;5053198;28;20024;-73
2022/06/12 04:33:39;;;;;;;8.60;2.33;;;17.20;85.10;;;;;;5052821;28;20033;-72
2022/06/12 04:36:08;;;;;;;9.90;2.30;;;17.30;85.40;;;;;;5053117;28;20021;-73
2022/06/12 04:38:35;;;;;;;8.77;2.60;;;17.30;85.20;;;;;;5052852;28;20024;-72
2022/06/12 04:41:01;;;;;;;12.32;3.20;;;17.30;85.50;;;;;;5052433;28;20500;-71
2022/06/12 04:43:28;;;;;;;9.40;2.30;;;17.30;85.50;;;;;;5052956;28;20025;-72
2022/06/12 04:45:54;;;;;;;11.18;2.90;;;17.30;85.70;;;;;;5053218;28;20028;-72
2022/06/12 04:48:30;;;;;;;10.57;2.65;;;17.30;85.90;;;;;;5052776;28;20029;-72
2022/06/12 04:50:55;;;;;;;9.93;2.20;;;17.30;86.20;;;;;;5053160;28;20462;-71
2022/06/12 04:53:21;;;;;;;9.15;2.33;;;17.30;86.20;;;;;;5052492;28;20043;-71
2022/06/12 04:55:46;;;;;;;7.18;2.72;;;17.30;86.30;;;;;;5053096;28;20056;-70
2022/06/12 04:58:12;;;;;;;9.68;2.80;;;17.40;86.30;;;;;;5052895;28;20029;-63
2022/06/12 05:00:38;;;;;;;10.02;2.55;;;17.40;86.30;;;;;;5050498;28;20034;-63
2022/06/12 05:03:03;;;;;;;14.90;3.92;;;17.40;86.50;;;;;;5051368;28;20104;-63
2022/06/12 05:05:30;;;;;;;14.23;3.17;;;17.40;86.80;;;;;;5052415;28;20447;-66
2022/06/12 05:07:56;;;;;;;13.60;3.20;;;17.40;87.10;;;;;;5049772;28;20021;-64
2022/06/12 05:10:22;;;;;;;13.35;3.17;;;17.50;87.10;;;;;;5052895;28;20091;-64
2022/06/12 05:12:47;;;;;;;9.43;2.97;;;17.40;87.30;;;;;;5052713;28;20033;-64
2022/06/12 05:15:13;;;;;;;13.82;3.65;;;17.50;87.40;;;;;;5051536;28;20422;-64
2022/06/12 05:17:45;;;;;;;14.80;3.05;;;17.60;87.40;;;;;;5041474;28;20041;-63
2022/06/12 05:20:17;;;;;;;13.02;3.55;;;17.80;86.90;;;;;;5049864;28;20024;-63
2022/06/12 05:22:42;;;;;;;12.82;3.30;;;17.90;86.60;;;;;;5037648;28;20079;-65
2022/06/12 05:25:09;;;;;;;14.32;4.15;;;18.00;86.60;;;;;;5032979;28;20021;-67
2022/06/12 05:27:35;;;;;;;10.90;3.55;;;18.00;86.20;;;;;;5041510;28;20033;-63
2022/06/12 05:30:00;;;;;;;16.00;3.67;;;18.10;86.10;;;;;;5032249;28;20593;-65
2022/06/12 05:32:26;;;;;;;15.05;3.97;;;18.20;86.10;;;;;;5031512;28;20032;-63
2022/06/12 05:34:53;;;;;;;9.48;3.22;;;18.20;86.70;;;;;;5039058;28;20024;-68
2022/06/12 05:37:19;;;;;;;11.15;3.40;;;18.30;87.50;;;;;;5035242;28;20029;-63
2022/06/12 05:39:45;;;;;;;11.90;3.83;;;18.40;87.70;;;;;;5049144;28;20027;-66
2022/06/12 05:42:12;;;;;;;12.63;4.13;;;18.60;87.80;;;;;;5048885;28;20029;-65
2022/06/12 05:44:39;;;;;;;16.20;4.10;;;18.70;87.60;;;;;;5035754;28;20484;-64
2022/06/12 05:47:05;;;;;;;14.55;4.70;;;18.80;88.10;;;;;;5035578;28;20037;-64
2022/06/12 05:49:31;;;;;;;14.85;4.57;;;18.90;87.50;;;;;;5035670;28;20548;-65
2022/06/12 05:51:57;;;;;;;15.02;4.40;;;19.00;87.40;;;;;;5054132;28;20055;-64
2022/06/12 05:54:22;;;;;;;15.60;4.22;;;19.10;87.50;;;;;;5039818;28;20041;-65
2022/06/12 05:56:49;;;;;;;16.08;4.95;;;19.10;87.00;;;;;;5042340;28;20047;-65
2022/06/12 05:59:15;;;;;;;13.90;4.10;;;19.20;86.70;;;;;;5050462;28;20013;-64
2022/06/12 06:01:41;;;;;;;13.80;4.07;;;19.20;86.50;;;;;;5053244;28;20021;-64
2022/06/12 06:04:08;;;;;;;14.07;4.65;;;19.30;86.30;;;;;;5053340;28;20474;-67
2022/06/12 06:06:40;;;;;;;16.45;4.85;;;19.40;86.30;;;;;;5051398;28;20053;-66
2022/06/12 06:09:07;;;;;;;16.17;4.88;;;19.40;85.60;;;;;;5045883;28;20025;-68
2022/06/12 06:11:32;;;;;;;17.55;5.55;;;19.50;85.50;;;;;;5050027;28;20037;-67
2022/06/12 06:13:58;;;;;;;18.35;5.88;;;19.50;85.10;;;;;;5035929;28;20037;-70
2022/06/12 06:16:23;;;;;;;13.68;5.47;;;19.60;85.10;;;;;;5028629;28;20024;-71
2022/06/12 06:18:49;;;;;;;20.50;5.70;;;19.60;84.60;;;;;;5034951;28;20037;-72
2022/06/12 06:21:16;;;;;;;17.45;5.55;;;19.60;84.80;;;;;;5034807;28;20028;-71
2022/06/12 06:23:43;;;;;;;18.83;5.78;;;19.70;84.80;;;;;;5041163;28;20033;-72
2022/06/12 06:26:09;;;;;;;15.55;5.22;;;19.70;85.40;;;;;;5046119;28;20525;-71
2022/06/12 06:28:36;;;;;;;17.90;6.07;;;19.80;85.80;;;;;;5043337;28;20079;-72
2022/06/12 06:31:03;;;;;;;21.23;5.80;;;19.90;86.00;;;;;;5047715;28;20450;-71
2022/06/12 06:33:29;;;;;;;16.40;5.43;;;19.90;86.50;;;;;;5036370;28;20049;-71
2022/06/12 06:35:54;;;;;;;10.55;4.75;;;19.90;86.50;;;;;;5037728;28;20021;-72
2022/06/12 06:38:21;;;;;;;5.68;2.28;;;20.00;86.20;;;;;;5040812;28;20034;-71
2022/06/12 06:40:47;;;;;;;8.50;2.35;;;20.00;83.80;;;;;;5047745;28;20072;-71
2022/06/12 06:43:13;;;;;;;8.30;2.70;;;20.00;83.00;;;;;;5034647;28;20025;-71
2022/06/12 06:48:25;;;;;;;9.00;2.78;;;20.10;82.70;;;;;;5036528;28;20043;-71
2022/06/12 06:50:51;;;;;;;7.55;2.15;;;20.20;82.50;;;;;;5034492;28;20029;-68
2022/06/12 06:53:17;;;;;;;10.85;3.00;;;20.20;82.40;;;;;;5034487;28;20041;-64
2022/06/12 06:55:43;;;;;;;6.45;2.63;;;20.30;82.30;;;;;;5034442;28;20039;-63
2022/06/12 06:58:16;;;;;;;12.88;3.95;;;20.40;82.20;;;;;;5034325;28;20108;-63
2022/06/12 07:00:43;;;;;;;13.93;4.70;;;20.40;83.30;;;;;;5033639;28;20520;-64
2022/06/12 07:03:10;;;;;;;13.38;4.00;;;20.50;84.70;;;;;;5043571;28;20029;-63
2022/06/12 07:05:36;;;;;;;8.15;2.58;;;20.50;83.40;;;;;;5039756;28;20034;-64
2022/06/12 07:08:03;;;;;;;10.13;2.97;;;20.60;82.40;;;;;;5034018;28;20497;-64
2022/06/12 07:10:29;;;;;;;10.50;2.90;;;20.60;81.90;;;;;;5034145;28;20064;-65
2022/06/12 07:12:58;;;;;;;11.05;3.05;;;20.70;81.90;;;;;;5042332;28;20037;-64
2022/06/12 07:15:25;;;;;;;15.32;4.72;;;20.80;82.10;;;;;;5032825;28;20029;-62
2022/06/12 07:17:51;;;;;;;16.75;5.22;;;20.80;83.70;;;;;;5041459;28;20035;-64
2022/06/12 07:20:20;;;;;;;12.00;3.95;;;20.90;83.70;;;;;;5051454;28;20381;-63
2022/06/12 07:22:46;;;;;;;7.97;3.15;;;20.90;82.40;;;;;;5054331;28;20351;-64
2022/06/12 07:25:13;;;;;;;10.30;3.10;;;21.00;81.80;;;;;;5054006;28;20021;-63
2022/06/12 07:27:39;;;;;;;12.55;2.97;;;21.00;82.40;;;;;;5054068;28;20043;-63
2022/06/12 07:30:06;;;;;;;15.32;4.57;;;21.00;81.50;;;;;;5053411;28;20025;-63
2022/06/12 07:32:33;;;;;;;11.57;3.47;;;21.10;82.30;;;;;;5053541;28;20504;-63
2022/06/12 07:34:59;;;;;;;13.18;4.40;;;21.10;82.00;;;;;;5053515;28;20024;-66
2022/06/12 07:37:25;;;;;;;11.20;3.33;;;21.20;81.70;;;;;;5053439;28;20025;-62
2022/06/12 07:39:50;;;;;;;12.95;3.30;;;21.20;82.20;;;;;;5053760;28;20021;-63
2022/06/12 07:42:16;;;;;;;7.78;2.97;;;21.20;81.40;;;;;;5053929;28;20059;-63
2022/06/12 07:44:42;;;;;;;9.05;2.70;;;21.30;81.40;;;;;;5035835;28;20112;-63
2022/06/12 07:47:07;;;;;;;11.85;3.70;;;21.30;80.70;;;;;;5052340;28;20037;-63
2022/06/12 07:49:34;;;;;;;10.02;3.22;;;21.30;80.70;;;;;;5046701;28;20033;-63
2022/06/12 07:52:02;;;;;;;13.30;3.60;;;21.30;80.60;;;;;;5052923;28;20017;-63
2022/06/12 07:54:30;;;;;;;11.27;3.65;;;21.30;80.60;;;;;;5053276;28;20120;-66
2022/06/12 07:56:57;;;;;;;11.35;4.38;;;21.40;81.70;;;;;;5031591;28;20461;-65
2022/06/12 07:59:23;;;;;;;10.95;3.72;;;21.50;82.80;;;;;;5043327;28;20359;-64
2022/06/12 08:01:50;;;;;;;13.65;4.07;;;21.50;81.70;;;;;;5051910;28;20025;-63
2022/06/12 08:04:16;;;;;;;12.93;3.75;;;21.50;81.60;;;;;;5042905;28;20074;-67
2022/06/12 08:06:42;;;;;;;14.23;4.13;;;21.50;81.10;;;;;;5046764;28;20022;-63
2022/06/12 08:09:10;;;;;;;11.55;4.35;;;21.50;81.10;;;;;;5046365;28;20035;-62
2022/06/12 08:11:36;;;;;;;9.35;3.97;;;21.60;81.80;;;;;;5051009;28;20481;-63
2022/06/12 08:14:02;;;;;;;17.45;5.55;;;21.60;81.20;;;;;;5047518;28;20035;-66
2022/06/12 08:16:29;;;;;;;13.13;4.13;;;21.60;81.40;;;;;;5042505;28;20148;-62
2022/06/12 08:18:55;;;;;;;14.68;4.57;;;21.70;81.40;;;;;;5050548;28;20462;-63
2022/06/12 08:21:21;;;;;;;11.93;4.43;;;21.70;81.50;;;;;;5051546;28;20029;-63
2022/06/12 08:23:51;;;;;;;11.98;4.00;;;21.70;81.20;;;;;;5051280;28;20029;-64
2022/06/12 08:26:26;;;;;;;15.23;5.30;;;21.70;81.00;;;;;;5044249;28;20047;-65
2022/06/12 08:28:56;;;;;;;15.95;5.20;;;21.70;81.20;;;;;;5038836;28;20038;-65
2022/06/12 08:31:27;;;;;;;13.90;4.43;;;21.80;81.40;;;;;;5046429;28;20394;-62
2022/06/12 08:33:56;;;;;;;11.85;4.80;;;21.90;81.40;;;;;;5038596;28;20576;-64
2022/06/12 08:36:22;;;;;;;10.63;4.57;;;22.00;80.90;;;;;;5042219;28;20032;-71
2022/06/12 08:38:48;;;;;;;16.92;5.65;;;22.10;80.40;;;;;;5047844;28;20034;-67
2022/06/12 08:41:33;;;;;;;13.43;4.85;;;22.10;80.60;;;;;;5042419;28;20474;-69
2022/06/12 08:44:07;;;;;;;15.80;4.28;;;22.10;81.20;;;;;;5047550;28;20028;-68
2022/06/12 08:46:41;;;;;;;15.90;5.40;;;22.20;80.50;;;;;;5042989;28;20036;-67
2022/06/12 08:49:09;;;;;;;12.98;4.45;;;22.20;80.80;;;;;;5045875;28;20022;-67
2022/06/12 08:52:06;;;;;;;10.68;4.38;;;22.20;80.40;;;;;;5048678;28;20052;-70
2022/06/12 08:54:40;;;;;;;12.52;4.07;;;22.20;80.60;;;;;;5045305;28;20037;-71
2022/06/12 08:57:25;;;;;;;12.07;3.42;;;22.10;80.60;;;;;;5039911;28;20016;-67
2022/06/12 09:00:01;;;;;;;11.48;3.35;;;22.10;80.80;;;;;;5050790;28;20434;-70
2022/06/12 09:02:31;;;;;;;14.73;4.10;;;22.10;80.90;;;;;;5042968;28;20405;-70
2022/06/12 09:05:00;;;;;;;15.35;4.50;;;22.20;80.50;;;;;;5050921;28;20104;-70
2022/06/12 09:07:26;;;;;;;9.57;4.00;;;22.30;79.00;;;;;;5049936;28;20037;-66
2022/06/12 09:10:02;;;;;;;12.18;4.18;;;22.40;78.50;;;;;;5053762;28;20362;-70
2022/06/12 09:12:42;;;;;;;14.75;3.60;;;22.40;78.90;;;;;;5055385;28;20041;-71
2022/06/12 09:15:24;;;;;;;16.83;3.88;;;22.30;79.90;;;;;;5049605;28;20114;-71
2022/06/12 09:18:09;;;;;;;9.55;3.20;;;22.30;79.80;;;;;;5046939;28;20068;-70
2022/06/12 09:20:46;;;;;;;8.55;2.97;;;22.30;79.70;;;;;;5033052;28;20628;-70
2022/06/12 09:23:28;;;;;;;10.30;3.65;;;22.40;78.10;;;;;;5050259;28;20028;-70
2022/06/12 09:26:19;;;;;;;11.65;3.25;;;22.40;78.80;;;;;;5035457;28;20032;-68
2022/06/12 09:28:49;;;;;;;14.52;2.90;;;22.40;78.60;;;;;;5040319;28;20486;-70
2022/06/12 09:31:22;;;;;;;8.77;3.05;;;22.40;78.30;;;;;;5038552;28;20025;-71
2022/06/12 09:34:02;;;;;;;9.05;2.92;;;22.40;78.50;;;;;;5039758;28;20066;-68
2022/06/12 09:36:55;;;;;;;9.75;2.75;;;22.40;77.80;;;;;;5047328;28;20025;-68
2022/06/12 09:39:31;;;;;;;8.73;2.88;;;22.40;77.00;;;;;;5045622;28;20057;-70
2022/06/12 09:42:25;;;;;;;10.90;3.17;;;22.30;77.20;;;;;;5051191;28;20034;-62
2022/06/12 09:45:24;;;;;;;10.13;3.28;;;22.30;76.90;;;;;;5039525;28;20033;-67
2022/06/12 09:48:11;;;;;;;9.48;3.00;;;22.30;76.70;;;;;;5026791;28;20587;-63
2022/06/12 09:50:44;;;;;;;8.75;3.17;;;22.30;76.50;;;;;;5048144;28;20054;-70
2022/06/12 09:53:34;;;;;;;9.63;3.03;;;22.40;76.40;;;;;;5050067;28;20127;-69
2022/06/12 09:56:24;;;;;;;8.70;3.75;;;22.40;76.30;;;;;;5049271;28;20021;-70
2022/06/12 09:59:20;;;;;;;9.50;3.33;;;22.40;76.20;;;;;;5028214;28;20025;-63
2022/06/12 10:01:49;;;;;;;10.52;3.65;;;22.40;76.10;;;;;;5049068;28;20086;-66
2022/06/12 10:04:49;;;;;;;13.57;3.95;;;22.40;76.20;;;;;;5041514;28;20386;-71
2022/06/12 10:07:44;;;;;;;8.40;3.97;;;22.40;75.80;;;;;;4965415;28;20496;-72
2022/06/12 10:10:22;;;;;;;7.45;3.17;;;22.40;75.90;;;;;;5040350;28;20041;-66
2022/06/12 10:12:51;;;;;;;11.38;3.75;;;22.50;76.00;;;;;;5047102;28;20083;-70
2022/06/12 10:15:32;;;;;;;7.22;3.38;;;22.50;76.00;;;;;;5041761;28;20071;-67
2022/06/12 10:18:06;;;;;;;9.98;3.22;;;22.50;76.00;;;;;;5044669;28;20431;-67
2022/06/12 10:20:38;;;;;;;6.72;3.00;;;22.50;75.90;;;;;;5047105;28;20009;-72
2022/06/12 10:23:04;;;;;;;6.07;2.95;;;22.50;75.70;;;;;;5051028;28;20047;-70
2022/06/12 10:25:40;;;;;;;10.60;3.50;;;22.50;75.90;;;;;;5050418;28;20377;-70
2022/06/12 10:28:15;;;;;;;7.00;3.10;;;22.50;76.00;;;;;;5042566;28;20033;-71
2022/06/12 10:30:44;;;;;;;11.90;3.03;;;22.50;76.10;;;;;;5050565;28;20024;-66
2022/06/12 10:33:26;;;;;;;10.20;3.00;;;22.60;76.80;;;;;;5049942;28;20041;-66
2022/06/12 10:35:56;;;;;;;11.20;2.80;;;22.60;76.10;;;;;;5048371;28;20047;-71
2022/06/12 10:38:24;;;;;;;15.07;3.70;;;22.50;75.90;;;;;;5043384;28;20036;-70
2022/06/12 10:40:55;;;;;;;12.20;3.20;;;22.50;75.50;;;;;;5048338;28;20013;-71
2022/06/12 10:43:32;;;;;;;10.68;3.35;;;22.50;75.80;;;;;;5048131;28;20060;-64
2022/06/12 10:46:19;;;;;;;10.05;3.50;;;22.60;76.50;;;;;;5049024;28;20113;-64
2022/06/12 10:49:21;;;;;;;10.23;2.92;;;22.50;75.40;;;;;;5044171;28;20071;-68
2022/06/12 10:51:47;;;;;;;8.15;2.65;;;22.60;75.40;;;;;;5044021;28;20082;-71
2022/06/12 10:54:18;;;;;;;8.57;3.13;;;22.60;76.10;;;;;;5049920;28;20483;-71
2022/06/12 10:56:58;;;;;;;12.27;3.30;;;22.60;76.60;;;;;;5047334;28;20053;-71
2022/06/12 10:59:34;;;;;;;16.58;4.43;;;22.60;77.00;;;;;;5047252;28;20024;-69
2022/06/12 11:02:30;;;;;;;18.73;4.57;;;22.60;79.00;;;;;;5049007;28;20029;-71
2022/06/12 11:05:20;;;;;;;15.45;4.18;;;22.60;79.20;;;;;;5046349;28;20025;-65
2022/06/12 11:08:09;;;;;;;14.57;4.22;;;22.70;78.70;;;;;;5047681;28;20502;-70
2022/06/12 11:10:38;;;;;;;15.68;4.43;;;22.70;78.60;;;;;;5047450;28;20021;-71
2022/06/12 11:13:16;;;;;;;16.02;4.43;;;22.80;79.10;;;;;;5052793;28;20088;-71
2022/06/12 11:16:00;;;;;;;13.98;4.32;;;22.80;78.90;;;;;;5047960;28;20025;-71
2022/06/12 11:18:48;;;;;;;15.25;4.25;;;22.80;79.40;;;;;;5045481;28;20033;-68
2022/06/12 11:21:41;;;;;;;13.93;3.53;;;22.80;79.20;;;;;;5049850;28;20060;-68
2022/06/12 11:24:28;;;;;;;14.63;4.53;;;22.90;79.40;;;;;;5037523;28;20530;-71
2022/06/12 11:26:53;;;;;;;11.60;3.60;;;22.80;79.80;;;;;;5051464;28;20045;-68
2022/06/12 11:29:34;;;;;;;14.50;3.38;;;22.90;78.40;;;;;;5035839;28;20381;-62
2022/06/12 11:32:23;;;;;;;13.98;4.13;;;22.90;78.40;;;;;;5044362;28;20029;-70
2022/06/12 11:35:04;;;;;;;12.93;4.47;;;23.00;78.50;;;;;;5038709;28;20366;-65
2022/06/12 11:37:57;;;;;;;17.50;4.72;;;22.90;78.60;;;;;;5049481;28;20481;-63
2022/06/12 11:40:22;;;;;;;15.00;4.13;;;22.90;79.80;;;;;;5050431;28;20485;-68
2022/06/12 11:43:16;;;;;;;15.60;4.28;;;22.90;78.10;;;;;;5049244;28;20025;-67
2022/06/12 11:45:44;;;;;;;15.80;4.20;;;22.90;77.80;;;;;;5052501;28;20032;-65
2022/06/12 11:48:44;;;;;;;14.40;4.40;;;22.90;77.80;;;;;;5052372;28;20029;-70
2022/06/12 11:52:00;;;;;;;12.73;3.58;;;22.90;76.60;;;;;;5044309;28;20132;-71
2022/06/12 11:54:42;;;;;;;11.73;3.08;;;23.00;76.20;;;;;;4990571;28;20453;-68
2022/06/12 11:57:13;;;;;;;12.98;3.20;;;22.90;75.30;;;;;;5037443;28;20029;-64
2022/06/12 12:00:07;;;;;;;9.53;3.20;;;22.90;74.20;;;;;;5040033;28;20025;-70
2022/06/12 12:03:04;;;;;;;11.30;2.92;;;23.00;74.00;;;;;;5032259;28;20062;-70
2022/06/12 12:05:58;;;;;;;6.82;2.22;;;23.00;73.00;;;;;;5048760;28;20088;-71
2022/06/12 12:08:42;;;;;;;11.70;2.60;;;23.10;71.60;;;;;;5045411;28;20051;-70
2022/06/12 12:11:09;;;;;;;9.30;2.45;;;23.00;72.40;;;;;;5052446;28;20028;-69
2022/06/12 12:13:47;;;;;;;10.43;2.65;;;23.10;71.80;;;;;;5052746;28;20079;-69
2022/06/12 12:16:12;;;;;;;7.68;2.10;;;23.10;71.80;;;;;;5053041;28;20108;-70
2022/06/12 12:18:46;;;;;;;6.03;1.52;;;23.10;70.90;;;;;;5052714;28;20112;-69
2022/06/12 12:21:26;;;;;;;7.00;1.88;;;23.10;70.50;;;;;;5052619;28;20021;-70
2022/06/12 12:23:52;;;;;;;8.32;2.03;;;23.10;70.10;;;;;;5051124;28;20029;-70
2022/06/12 12:26:31;;;;;;;3.90;1.75;;;23.10;69.80;;;;;;5040825;28;20036;-68
2022/06/12 12:29:03;;;;;;;6.97;1.65;;;23.20;68.40;;;;;;5051790;28;20029;-70
2022/06/12 12:31:30;;;;;;;9.20;2.17;;;23.20;69.30;;;;;;5051906;28;20028;-69
2022/06/12 12:33:59;;;;;;;6.80;1.88;;;23.20;69.90;;;;;;5051464;28;20111;-66
2022/06/12 12:42:32;;;;;;;10.93;2.00;;;23.30;69.30;;;;;;5051845;28;20106;-70
2022/06/12 12:45:23;;;;;;;8.75;1.88;;;23.30;69.20;;;;;;5048702;28;20055;-70
2022/06/12 12:48:10;;;;;;;6.43;1.30;;;23.40;68.10;;;;;;5039076;28;20041;-69
2022/06/12 12:50:52;;;;;;;8.10;1.65;;;23.40;69.60;;;;;;5051922;28;20029;-69
2022/06/12 12:53:26;;;;;;;7.10;1.73;;;23.40;70.00;;;;;;5052557;28;20108;-71
2022/06/12 12:56:01;;;;;;;6.68;1.63;;;23.30;69.70;;;;;;5051371;28;20489;-68
2022/06/12 12:58:28;;;;;;;5.70;1.70;;;23.40;69.70;;;;;;5051457;28;20501;-70
2022/06/12 13:01:24;;;;;;;9.25;1.73;;;23.40;68.60;;;;;;5045325;28;20069;-67
2022/06/12 13:03:56;;;;;;;5.38;1.73;;;23.40;68.60;;;;;;5028920;28;20045;-65
2022/06/12 13:06:54;;;;;;;3.55;1.15;;;23.50;69.40;;;;;;5044111;28;20018;-65
2022/06/12 13:09:29;;;;;;;6.60;1.63;;;23.40;69.00;;;;;;5049788;28;20033;-65
2022/06/12 13:12:40;;;;;;;6.38;1.77;;;23.50;68.80;;;;;;5041302;28;20482;-66
2022/06/12 13:15:19;;;;;;;5.97;1.63;;;23.50;68.50;;;;;;5013146;28;20041;-69
2022/06/12 13:18:38;;;;;;;6.60;1.60;;;23.50;68.90;;;;;;5046707;28;20037;-67
2022/06/12 13:21:18;;;;;;;8.85;1.60;;;23.60;68.90;;;;;;4967187;28;20305;-64
2022/06/12 13:23:53;;;;;;;7.70;1.88;;;23.60;69.10;;;;;;5043277;28;20025;-70
2022/06/12 13:26:20;;;;;;;5.78;1.70;;;23.70;68.60;;;;;;5027640;28;20021;-64
2022/06/12 13:28:57;;;;;;;7.60;1.77;;;23.60;69.00;;;;;;5043697;28;20036;-69
2022/06/12 13:31:23;;;;;;;6.03;1.80;;;23.60;69.30;;;;;;5047490;28;20090;-63
2022/06/12 13:33:55;;;;;;;7.03;1.52;;;23.60;69.60;;;;;;5042705;28;20037;-68
2022/06/12 13:36:47;;;;;;;9.35;2.45;;;23.60;69.80;;;;;;5049379;28;20067;-69